sensor_id;sensor_type;location;lat;lon;timestamp;pressure;altitude;pressure_sealevel;temperature;humidity
12203;BME280;6164;42.178;24.622;2022-11-15T00:01:58;100502.84;;;4.46;100.00
12203;BME280;6164;42.178;24.622;2022-11-15T00:04:25;100498.88;;;4.40;100.00
12203;BME280;6164;42.178;24.622;2022-11-15T00:06:51;100502.22;;;4.42;100.00
12203;BME280;6164;42.178;24.622;2022-11-15T00:09:18;100499.50;;;4.44;100.00
12203;BME280;6164;42.178;24.622;2022-11-15T00:11:46;100496.38;;;4.39;100.00
12203;BME280;6164;42.178;24.622;2022-11-15T00:14:12;100500.78;;;4.38;100.00
12203;BME280;6164;42.178;24.622;2022-11-15T00:16:39;100498.19;;;4.38;100.00
12203;BME280;6164;42.178;24.622;2022-11-15T00:19:05;100498.66;;;4.43;100.00
12203;BME280;6164;42.178;24.622;2022-11-15T00:21:32;100493.88;;;4.50;100.00
12203;BME280;6164;42.178;24.622;2022-11-15T00:23:58;100498.97;;;4.51;100.00
12203;BME280;6164;42.178;24.622;2022-11-15T00:26:25;100494.47;;;4.53;100.00
12203;BME280;6164;42.178;24.622;2022-11-15T00:28:52;100484.97;;;4.52;100.00
12203;BME280;6164;42.178;24.622;2022-11-15T00:31:19;100490.59;;;4.59;100.00
12203;BME280;6164;42.178;24.622;2022-11-15T00:33:45;100484.91;;;4.65;100.00
12203;BME280;6164;42.178;24.622;2022-11-15T00:36:12;100474.03;;;4.71;100.00
12203;BME280;6164;42.178;24.622;2022-11-15T00:38:39;100472.72;;;4.76;100.00
12203;BME280;6164;42.178;24.622;2022-11-15T00:41:06;100472.09;;;4.85;100.00
12203;BME280;6164;42.178;24.622;2022-11-15T00:43:33;100471.53;;;4.93;100.00
12203;BME280;6164;42.178;24.622;2022-11-15T00:46:01;100470.75;;;5.03;100.00
12203;BME280;6164;42.178;24.622;2022-11-15T00:48:28;100461.72;;;5.07;100.00
12203;BME280;6164;42.178;24.622;2022-11-15T00:50:55;100461.28;;;5.13;100.00
12203;BME280;6164;42.178;24.622;2022-11-15T00:53:21;100459.16;;;5.18;100.00
12203;BME280;6164;42.178;24.622;2022-11-15T00:55:47;100456.81;;;5.26;100.00
12203;BME280;6164;42.178;24.622;2022-11-15T00:58:14;100459.06;;;5.31;100.00
12203;BME280;6164;42.178;24.622;2022-11-15T01:00:40;100458.97;;;5.32;100.00
12203;BME280;6164;42.178;24.622;2022-11-15T01:03:08;100457.78;;;5.36;100.00
12203;BME280;6164;42.178;24.622;2022-11-15T01:05:36;100466.97;;;5.42;100.00
12203;BME280;6164;42.178;24.622;2022-11-15T01:08:03;100453.06;;;5.42;100.00
12203;BME280;6164;42.178;24.622;2022-11-15T01:10:30;100448.53;;;5.44;100.00
12203;BME280;6164;42.178;24.622;2022-11-15T01:12:56;100444.84;;;5.46;100.00
12203;BME280;6164;42.178;24.622;2022-11-15T01:15:23;100448.06;;;5.50;100.00
12203;BME280;6164;42.178;24.622;2022-11-15T01:17:49;100442.72;;;5.51;100.00
12203;BME280;6164;42.178;24.622;2022-11-15T01:20:17;100439.84;;;5.54;100.00
12203;BME280;6164;42.178;24.622;2022-11-15T01:22:44;100439.63;;;5.57;100.00
12203;BME280;6164;42.178;24.622;2022-11-15T01:25:10;100435.94;;;5.60;100.00
12203;BME280;6164;42.178;24.622;2022-11-15T01:27:37;100439.38;;;5.60;100.00
12203;BME280;6164;42.178;24.622;2022-11-15T01:30:04;100436.69;;;5.62;100.00
12203;BME280;6164;42.178;24.622;2022-11-15T01:32:30;100434.75;;;5.64;100.00
12203;BME280;6164;42.178;24.622;2022-11-15T01:34:57;100434.75;;;5.64;100.00
12203;BME280;6164;42.178;24.622;2022-11-15T01:37:25;100433.69;;;5.66;100.00
12203;BME280;6164;42.178;24.622;2022-11-15T01:39:51;100435.84;;;5.72;100.00
12203;BME280;6164;42.178;24.622;2022-11-15T01:42:18;100428.47;;;5.77;100.00
12203;BME280;6164;42.178;24.622;2022-11-15T01:44:46;100432.78;;;5.78;100.00
12203;BME280;6164;42.178;24.622;2022-11-15T01:47:14;100436.19;;;5.79;100.00
12203;BME280;6164;42.178;24.622;2022-11-15T01:49:43;100435.06;;;5.83;100.00
12203;BME280;6164;42.178;24.622;2022-11-15T01:52:13;100430.19;;;5.89;100.00
12203;BME280;6164;42.178;24.622;2022-11-15T01:54:43;100426.84;;;5.87;100.00
12203;BME280;6164;42.178;24.622;2022-11-15T01:57:10;100428.28;;;5.91;100.00
12203;BME280;6164;42.178;24.622;2022-11-15T01:59:38;100425.41;;;5.94;100.00
12203;BME280;6164;42.178;24.622;2022-11-15T02:02:05;100431.38;;;5.96;100.00
12203;BME280;6164;42.178;24.622;2022-11-15T02:04:32;100434.56;;;6.00;100.00
12203;BME280;6164;42.178;24.622;2022-11-15T02:07:01;100425.66;;;6.02;100.00
12203;BME280;6164;42.178;24.622;2022-11-15T02:09:29;100431.63;;;6.04;100.00
12203;BME280;6164;42.178;24.622;2022-11-15T02:11:57;100423.03;;;6.02;100.00
12203;BME280;6164;42.178;24.622;2022-11-15T02:14:24;100423.03;;;6.02;100.00
12203;BME280;6164;42.178;24.622;2022-11-15T02:16:53;100419.56;;;6.02;100.00
12203;BME280;6164;42.178;24.622;2022-11-15T02:19:29;100423.88;;;6.03;100.00
12203;BME280;6164;42.178;24.622;2022-11-15T02:22:04;100422.78;;;6.05;100.00
12203;BME280;6164;42.178;24.622;2022-11-15T02:24:47;100421.72;;;6.08;100.00
12203;BME280;6164;42.178;24.622;2022-11-15T02:30:13;100418.63;;;6.14;100.00
12203;BME280;6164;42.178;24.622;2022-11-15T02:32:40;100416.25;;;6.11;100.00
12203;BME280;6164;42.178;24.622;2022-11-15T02:35:11;100413.63;;;6.11;100.00
12203;BME280;6164;42.178;24.622;2022-11-15T02:37:43;100417.91;;;6.12;100.00
12203;BME280;6164;42.178;24.622;2022-11-15T02:40:13;100416.94;;;6.13;100.00
12203;BME280;6164;42.178;24.622;2022-11-15T02:42:45;100413.25;;;6.15;100.00
12203;BME280;6164;42.178;24.622;2022-11-15T02:45:35;100409.53;;;6.18;100.00
12203;BME280;6164;42.178;24.622;2022-11-15T02:48:03;100408.72;;;6.17;100.00
12203;BME280;6164;42.178;24.622;2022-11-15T02:50:30;100409.47;;;6.19;100.00
12203;BME280;6164;42.178;24.622;2022-11-15T02:52:58;100410.75;;;6.14;100.00
12203;BME280;6164;42.178;24.622;2022-11-15T02:55:25;100409.91;;;6.13;100.00
12203;BME280;6164;42.178;24.622;2022-11-15T02:57:53;100407.06;;;6.05;100.00
12203;BME280;6164;42.178;24.622;2022-11-15T03:00:25;100407.78;;;6.07;100.00
12203;BME280;6164;42.178;24.622;2022-11-15T03:03:05;100403.25;;;6.09;100.00
12203;BME280;6164;42.178;24.622;2022-11-15T03:05:37;100406.94;;;6.07;100.00
12203;BME280;6164;42.178;24.622;2022-11-15T03:08:08;100399.56;;;6.01;100.00
12203;BME280;6164;42.178;24.622;2022-11-15T03:10:40;100405.75;;;6.00;100.00
12203;BME280;6164;42.178;24.622;2022-11-15T03:13:10;100401.34;;;6.00;100.00
12203;BME280;6164;42.178;24.622;2022-11-15T03:15:41;100408.25;;;6.01;100.00
12203;BME280;6164;42.178;24.622;2022-11-15T03:18:12;100407.56;;;5.99;100.00
12203;BME280;6164;42.178;24.622;2022-11-15T03:20:42;100400.50;;;5.89;100.00
12203;BME280;6164;42.178;24.622;2022-11-15T03:23:09;100404.09;;;5.88;100.00
12203;BME280;6164;42.178;24.622;2022-11-15T03:25:38;100411.00;;;5.89;100.00
12203;BME280;6164;42.178;24.622;2022-11-15T03:28:06;100402.78;;;5.82;100.00
12203;BME280;6164;42.178;24.622;2022-11-15T03:30:35;100409.06;;;5.80;100.00
12203;BME280;6164;42.178;24.622;2022-11-15T03:33:02;100408.22;;;5.79;100.00
12203;BME280;6164;42.178;24.622;2022-11-15T03:35:32;100408.47;;;5.76;100.00
12203;BME280;6164;42.178;24.622;2022-11-15T03:38:00;100405.47;;;5.81;100.00
12203;BME280;6164;42.178;24.622;2022-11-15T03:40:33;100404.22;;;5.86;100.00
12203;BME280;6164;42.178;24.622;2022-11-15T03:43:02;100397.41;;;5.95;100.00
12203;BME280;6164;42.178;24.622;2022-11-15T03:45:31;100390.13;;;5.98;100.00
12203;BME280;6164;42.178;24.622;2022-11-15T03:48:01;100385.63;;;6.00;100.00
12203;BME280;6164;42.178;24.622;2022-11-15T03:50:28;100382.16;;;6.00;100.00
12203;BME280;6164;42.178;24.622;2022-11-15T03:52:57;100373.72;;;5.96;100.00
12203;BME280;6164;42.178;24.622;2022-11-15T03:55:24;100378.72;;;5.99;100.00
12203;BME280;6164;42.178;24.622;2022-11-15T03:57:51;100376.69;;;6.03;100.00
12203;BME280;6164;42.178;24.622;2022-11-15T04:00:19;100369.91;;;6.00;100.00
12203;BME280;6164;42.178;24.622;2022-11-15T04:02:45;100367.53;;;5.97;100.00
12203;BME280;6164;42.178;24.622;2022-11-15T04:05:12;100369.41;;;5.95;100.00
12203;BME280;6164;42.178;24.622;2022-11-15T04:07:38;100362.97;;;5.88;100.00
12203;BME280;6164;42.178;24.622;2022-11-15T04:10:07;100370.16;;;5.86;100.00
12203;BME280;6164;42.178;24.622;2022-11-15T04:12:35;100366.69;;;5.86;100.00
12203;BME280;6164;42.178;24.622;2022-11-15T04:15:03;100367.16;;;5.91;100.00
12203;BME280;6164;42.178;24.622;2022-11-15T04:17:33;100370.50;;;5.93;100.00
12203;BME280;6164;42.178;24.622;2022-11-15T04:20:00;100369.41;;;5.95;100.00
12203;BME280;6164;42.178;24.622;2022-11-15T04:22:44;100370.84;;;5.88;100.00
12203;BME280;6164;42.178;24.622;2022-11-15T04:25:29;100361.06;;;5.79;100.00
12203;BME280;6164;42.178;24.622;2022-11-15T04:27:56;100366.31;;;5.79;100.00
12203;BME280;6164;42.178;24.622;2022-11-15T04:30:22;100368.72;;;5.82;100.00
12203;BME280;6164;42.178;24.622;2022-11-15T04:32:49;100368.59;;;5.84;100.00
12203;BME280;6164;42.178;24.622;2022-11-15T04:35:15;100365.59;;;5.88;100.00
12203;BME280;6164;42.178;24.622;2022-11-15T04:37:42;100369.66;;;5.92;100.00
12203;BME280;6164;42.178;24.622;2022-11-15T04:40:08;100365.88;;;5.96;100.00
12203;BME280;6164;42.178;24.622;2022-11-15T04:42:36;100368.94;;;6.01;100.00
12203;BME280;6164;42.178;24.622;2022-11-15T04:45:03;100363.47;;;6.04;100.00
12203;BME280;6164;42.178;24.622;2022-11-15T04:47:29;100362.25;;;6.08;100.00
12203;BME280;6164;42.178;24.622;2022-11-15T04:49:56;100359.63;;;6.08;100.00
12203;BME280;6164;42.178;24.622;2022-11-15T04:52:22;100361.06;;;6.12;100.00
12203;BME280;6164;42.178;24.622;2022-11-15T04:54:49;100356.75;;;6.11;100.00
12203;BME280;6164;42.178;24.622;2022-11-15T04:57:15;100353.47;;;6.09;100.00
12203;BME280;6164;42.178;24.622;2022-11-15T04:59:43;100352.50;;;6.10;100.00
12203;BME280;6164;42.178;24.622;2022-11-15T05:02:10;100350.00;;;6.09;100.00
12203;BME280;6164;42.178;24.622;2022-11-15T05:04:36;100343.09;;;6.08;100.00
12203;BME280;6164;42.178;24.622;2022-11-15T05:07:01;100336.28;;;6.05;100.00
12203;BME280;6164;42.178;24.622;2022-11-15T05:09:30;100339.28;;;6.01;100.00
12203;BME280;6164;42.178;24.622;2022-11-15T05:11:56;100338.44;;;6.00;100.00
12203;BME280;6164;42.178;24.622;2022-11-15T05:14:23;100343.69;;;6.00;100.00
12203;BME280;6164;42.178;24.622;2022-11-15T05:16:51;100344.28;;;6.04;100.00
12203;BME280;6164;42.178;24.622;2022-11-15T05:19:17;100345.13;;;6.04;100.00
12203;BME280;6164;42.178;24.622;2022-11-15T05:21:44;100332.03;;;6.04;100.00
12203;BME280;6164;42.178;24.622;2022-11-15T05:24:10;100340.00;;;6.03;100.00
12203;BME280;6164;42.178;24.622;2022-11-15T05:26:37;100342.03;;;5.99;100.00
12203;BME280;6164;42.178;24.622;2022-11-15T05:29:08;100338.81;;;5.96;100.00
12203;BME280;6164;42.178;24.622;2022-11-15T05:31:36;100337.38;;;5.92;100.00
12203;BME280;6164;42.178;24.622;2022-11-15T05:34:06;100335.00;;;5.89;100.00
12203;BME280;6164;42.178;24.622;2022-11-15T05:36:33;100342.13;;;5.87;100.00
12203;BME280;6164;42.178;24.622;2022-11-15T05:39:01;100343.22;;;5.84;100.00
12203;BME280;6164;42.178;24.622;2022-11-15T05:41:30;100339.78;;;5.84;100.00
12203;BME280;6164;42.178;24.622;2022-11-15T05:43:58;100337.03;;;5.85;100.00
12203;BME280;6164;42.178;24.622;2022-11-15T05:46:26;100341.53;;;5.83;100.00
12203;BME280;6164;42.178;24.622;2022-11-15T05:48:52;100343.44;;;5.81;100.00
12203;BME280;6164;42.178;24.622;2022-11-15T05:51:21;100351.31;;;5.81;100.00
12203;BME280;6164;42.178;24.622;2022-11-15T05:53:48;100346.41;;;5.77;100.00
12203;BME280;6164;42.178;24.622;2022-11-15T05:56:16;100346.66;;;5.74;100.00
12203;BME280;6164;42.178;24.622;2022-11-15T05:58:42;100353.22;;;5.68;100.00
12203;BME280;6164;42.178;24.622;2022-11-15T06:01:09;100349.88;;;5.66;100.00
12203;BME280;6164;42.178;24.622;2022-11-15T06:03:35;100359.38;;;5.67;100.00
12203;BME280;6164;42.178;24.622;2022-11-15T06:06:02;100355.13;;;5.66;100.00
12203;BME280;6164;42.178;24.622;2022-11-15T06:08:30;100358.44;;;5.68;100.00
12203;BME280;6164;42.178;24.622;2022-11-15T06:11:02;100356.53;;;5.70;100.00
12203;BME280;6164;42.178;24.622;2022-11-15T06:13:28;100361.44;;;5.75;100.00
12203;BME280;6164;42.178;24.622;2022-11-15T06:15:55;100367.28;;;5.78;100.00
12203;BME280;6164;42.178;24.622;2022-11-15T06:18:21;100370.28;;;5.85;100.00
12203;BME280;6164;42.178;24.622;2022-11-15T06:20:48;100361.22;;;5.89;100.00
12203;BME280;6164;42.178;24.622;2022-11-15T06:23:14;100362.66;;;5.93;100.00
12203;BME280;6164;42.178;24.622;2022-11-15T06:25:42;100363.25;;;5.96;100.00
12203;BME280;6164;42.178;24.622;2022-11-15T06:28:09;100363.69;;;6.01;100.00
12203;BME280;6164;42.178;24.622;2022-11-15T06:30:35;100357.13;;;6.07;100.00
12203;BME280;6164;42.178;24.622;2022-11-15T06:33:02;100365.34;;;6.13;100.00
12203;BME280;6164;42.178;24.622;2022-11-15T06:35:29;100365.56;;;6.21;100.00
12203;BME280;6164;42.178;24.622;2022-11-15T06:37:56;100368.19;;;6.32;100.00
12203;BME280;6164;42.178;24.622;2022-11-15T06:40:32;100369.13;;;6.42;100.00
12203;BME280;6164;42.178;24.622;2022-11-15T06:43:00;100367.66;;;6.49;100.00
12203;BME280;6164;42.178;24.622;2022-11-15T06:45:27;100371.78;;;6.63;100.00
12203;BME280;6164;42.178;24.622;2022-11-15T06:47:53;100373.31;;;6.77;100.00
12203;BME280;6164;42.178;24.622;2022-11-15T06:50:20;100368.72;;;6.90;100.00
12203;BME280;6164;42.178;24.622;2022-11-15T06:52:46;100370.34;;;7.02;100.00
12203;BME280;6164;42.178;24.622;2022-11-15T06:55:13;100364.31;;;7.11;100.00
12203;BME280;6164;42.178;24.622;2022-11-15T06:57:45;100361.72;;;7.20;100.00
12203;BME280;6164;42.178;24.622;2022-11-15T07:00:14;100361.56;;;7.33;100.00
12203;BME280;6164;42.178;24.622;2022-11-15T07:02:41;100354.81;;;7.40;100.00
12203;BME280;6164;42.178;24.622;2022-11-15T07:05:07;100354.03;;;7.49;100.00
12203;BME280;6164;42.178;24.622;2022-11-15T07:07:34;100349.81;;;7.57;100.00
12203;BME280;6164;42.178;24.622;2022-11-15T07:10:01;100343.88;;;7.65;100.00
12203;BME280;6164;42.178;24.622;2022-11-15T07:12:27;100332.31;;;7.77;100.00
12203;BME280;6164;42.178;24.622;2022-11-15T07:14:54;100333.31;;;7.85;100.00
12203;BME280;6164;42.178;24.622;2022-11-15T07:17:21;100332.38;;;7.96;100.00
12203;BME280;6164;42.178;24.622;2022-11-15T07:19:48;100337.56;;;8.07;100.00
12203;BME280;6164;42.178;24.622;2022-11-15T07:22:14;100333.81;;;8.19;100.00
12203;BME280;6164;42.178;24.622;2022-11-15T07:24:41;100331.94;;;8.31;100.00
12203;BME280;6164;42.178;24.622;2022-11-15T07:27:07;100328.22;;;8.43;100.00
12203;BME280;6164;42.178;24.622;2022-11-15T07:29:34;100329.06;;;8.53;100.00
12203;BME280;6164;42.178;24.622;2022-11-15T07:32:01;100318.41;;;8.64;100.00
12203;BME280;6164;42.178;24.622;2022-11-15T07:34:28;100320.78;;;8.76;100.00
12203;BME280;6164;42.178;24.622;2022-11-15T07:36:55;100319.78;;;8.87;100.00
12203;BME280;6164;42.178;24.622;2022-11-15T07:39:21;100321.59;;;8.96;100.00
12203;BME280;6164;42.178;24.622;2022-11-15T07:41:48;100307.00;;;9.01;100.00
12203;BME280;6164;42.178;24.622;2022-11-15T07:44:34;100309.50;;;9.12;100.00
12203;BME280;6164;42.178;24.622;2022-11-15T07:47:01;100302.81;;;9.18;100.00
12203;BME280;6164;42.178;24.622;2022-11-15T07:49:29;100303.94;;;9.25;100.00
12203;BME280;6164;42.178;24.622;2022-11-15T07:51:55;100305.44;;;9.37;100.00
12203;BME280;6164;42.178;24.622;2022-11-15T07:54:22;100301.06;;;9.46;100.00
12203;BME280;6164;42.178;24.622;2022-11-15T07:56:48;100300.78;;;9.58;100.00
12203;BME280;6164;42.178;24.622;2022-11-15T07:59:15;100297.09;;;9.69;100.00
12203;BME280;6164;42.178;24.622;2022-11-15T08:01:41;100301.38;;;9.79;100.00
12203;BME280;6164;42.178;24.622;2022-11-15T08:04:09;100285.94;;;9.84;100.00
12203;BME280;6164;42.178;24.622;2022-11-15T08:06:37;100287.56;;;9.95;100.00
12203;BME280;6164;42.178;24.622;2022-11-15T08:09:04;100281.53;;;10.02;100.00
12203;BME280;6164;42.178;24.622;2022-11-15T08:11:30;100277.34;;;10.09;100.00
12203;BME280;6164;42.178;24.622;2022-11-15T08:13:57;100275.91;;;10.15;100.00
12203;BME280;6164;42.178;24.622;2022-11-15T08:16:23;100274.03;;;10.25;100.00
12203;BME280;6164;42.178;24.622;2022-11-15T08:18:50;100277.75;;;10.32;100.00
12203;BME280;6164;42.178;24.622;2022-11-15T08:21:17;100271.72;;;10.39;100.00
12203;BME280;6164;42.178;24.622;2022-11-15T08:23:45;100268.50;;;10.45;100.00
12203;BME280;6164;42.178;24.622;2022-11-15T08:26:12;100273.63;;;10.47;100.00
12203;BME280;6164;42.178;24.622;2022-11-15T08:28:39;100277.00;;;10.39;100.00
12203;BME280;6164;42.178;24.622;2022-11-15T08:31:06;100273.31;;;10.32;100.00
12203;BME280;6164;42.178;24.622;2022-11-15T08:33:32;100271.06;;;10.37;100.00
12203;BME280;6164;42.178;24.622;2022-11-15T08:36:00;100266.09;;;10.34;100.00
12203;BME280;6164;42.178;24.622;2022-11-15T08:38:26;100262.97;;;10.39;100.00
12203;BME280;6164;42.178;24.622;2022-11-15T08:41:00;100272.47;;;10.49;100.00
12203;BME280;6164;42.178;24.622;2022-11-15T08:43:27;100271.78;;;10.65;100.00
12203;BME280;6164;42.178;24.622;2022-11-15T08:45:55;100263.56;;;10.68;100.00
12203;BME280;6164;42.178;24.622;2022-11-15T08:48:22;100262.06;;;10.66;100.00
12203;BME280;6164;42.178;24.622;2022-11-15T08:50:48;100269.22;;;10.73;100.00
12203;BME280;6164;42.178;24.622;2022-11-15T08:53:15;100264.63;;;10.75;100.00
12203;BME280;6164;42.178;24.622;2022-11-15T08:55:41;100248.63;;;10.77;100.00
12203;BME280;6164;42.178;24.622;2022-11-15T08:58:09;100255.75;;;10.84;100.00
12203;BME280;6164;42.178;24.622;2022-11-15T09:00:35;100246.75;;;10.95;100.00
12203;BME280;6164;42.178;24.622;2022-11-15T09:03:03;100245.63;;;10.97;100.00
12203;BME280;6164;42.178;24.622;2022-11-15T09:05:30;100242.22;;;11.05;100.00
12203;BME280;6164;42.178;24.622;2022-11-15T09:07:56;100238.81;;;11.20;100.00
12203;BME280;6164;42.178;24.622;2022-11-15T09:10:23;100233.31;;;11.39;100.00
12203;BME280;6164;42.178;24.622;2022-11-15T09:12:49;100224.50;;;11.56;100.00
12203;BME280;6164;42.178;24.622;2022-11-15T09:15:17;100218.19;;;11.57;100.00
12203;BME280;6164;42.178;24.622;2022-11-15T09:17:44;100203.06;;;11.67;100.00
12203;BME280;6164;42.178;24.622;2022-11-15T09:20:11;100192.66;;;11.74;100.00
12203;BME280;6164;42.178;24.622;2022-11-15T09:22:37;100196.81;;;11.84;100.00
12203;BME280;6164;42.178;24.622;2022-11-15T09:25:05;100194.03;;;11.86;100.00
12203;BME280;6164;42.178;24.622;2022-11-15T09:27:32;100191.56;;;11.93;100.00
12203;BME280;6164;42.178;24.622;2022-11-15T09:29:58;100189.91;;;12.00;100.00
12203;BME280;6164;42.178;24.622;2022-11-15T09:32:28;100179.16;;;12.01;100.00
12203;BME280;6164;42.178;24.622;2022-11-15T09:34:55;100180.16;;;12.08;100.00
12203;BME280;6164;42.178;24.622;2022-11-15T09:37:22;100170.75;;;12.14;100.00
12203;BME280;6164;42.178;24.622;2022-11-15T09:39:48;100171.75;;;12.21;100.00
12203;BME280;6164;42.178;24.622;2022-11-15T09:42:34;100169.75;;;12.31;100.00
12203;BME280;6164;42.178;24.622;2022-11-15T09:45:13;100163.97;;;12.51;100.00
12203;BME280;6164;42.178;24.622;2022-11-15T09:50:28;100168.22;;;12.84;100.00
12203;BME280;6164;42.178;24.622;2022-11-15T09:52:57;100159.75;;;12.97;100.00
12203;BME280;6164;42.178;24.622;2022-11-15T09:55:26;100157.44;;;12.94;100.00
12203;BME280;6164;42.178;24.622;2022-11-15T09:57:59;100153.94;;;12.93;100.00
12203;BME280;6164;42.178;24.622;2022-11-15T10:00:33;100150.03;;;12.81;100.00
12203;BME280;6164;42.178;24.622;2022-11-15T10:03:08;100142.06;;;12.81;100.00
12203;BME280;6164;42.178;24.622;2022-11-15T10:05:37;100137.72;;;12.88;100.00
12203;BME280;6164;42.178;24.622;2022-11-15T10:08:06;100125.69;;;12.78;100.00
12203;BME280;6164;42.178;24.622;2022-11-15T10:10:40;100125.00;;;12.84;100.00
12203;BME280;6164;42.178;24.622;2022-11-15T10:13:09;100123.00;;;12.94;100.00
12203;BME280;6164;42.178;24.622;2022-11-15T10:15:40;100120.81;;;13.05;100.00
12203;BME280;6164;42.178;24.622;2022-11-15T10:18:14;100115.50;;;13.13;99.18
12203;BME280;6164;42.178;24.622;2022-11-15T10:20:48;100108.19;;;13.15;98.68
12203;BME280;6164;42.178;24.622;2022-11-15T10:23:16;100112.94;;;13.28;99.23
12203;BME280;6164;42.178;24.622;2022-11-15T10:25:43;100111.13;;;13.29;98.02
12203;BME280;6164;42.178;24.622;2022-11-15T10:28:14;100111.59;;;13.32;98.66
12203;BME280;6164;42.178;24.622;2022-11-15T10:30:42;100103.13;;;13.37;98.09
12203;BME280;6164;42.178;24.622;2022-11-15T10:38:51;100088.13;;;13.52;97.36
12203;BME280;6164;42.178;24.622;2022-11-15T10:41:18;100084.94;;;13.56;97.68
12203;BME280;6164;42.178;24.622;2022-11-15T10:43:46;100078.47;;;13.59;96.25
12203;BME280;6164;42.178;24.622;2022-11-15T10:46:26;100070.16;;;13.62;95.39
12203;BME280;6164;42.178;24.622;2022-11-15T10:48:53;100071.66;;;13.56;94.54
12203;BME280;6164;42.178;24.622;2022-11-15T10:51:24;100070.34;;;13.60;93.70
12203;BME280;6164;42.178;24.622;2022-11-15T10:53:54;100059.78;;;13.52;93.52
12203;BME280;6164;42.178;24.622;2022-11-15T10:56:23;100061.06;;;13.56;92.08
12203;BME280;6164;42.178;24.622;2022-11-15T10:58:52;100049.91;;;13.61;90.51
12203;BME280;6164;42.178;24.622;2022-11-15T11:01:23;100043.69;;;13.54;89.21
12203;BME280;6164;42.178;24.622;2022-11-15T11:03:57;100047.13;;;13.62;91.23
12203;BME280;6164;42.178;24.622;2022-11-15T11:06:24;100043.25;;;13.65;90.85
12203;BME280;6164;42.178;24.622;2022-11-15T11:08:57;100029.16;;;13.64;89.86
12203;BME280;6164;42.178;24.622;2022-11-15T11:11:43;100033.50;;;13.65;91.53
12203;BME280;6164;42.178;24.622;2022-11-15T11:14:11;100032.91;;;13.55;92.00
12203;BME280;6164;42.178;24.622;2022-11-15T11:16:43;100029.00;;;13.66;90.95
12203;BME280;6164;42.178;24.622;2022-11-15T11:19:17;100021.72;;;13.82;90.94
12203;BME280;6164;42.178;24.622;2022-11-15T11:21:45;100023.88;;;13.87;88.07
12203;BME280;6164;42.178;24.622;2022-11-15T11:24:18;100016.09;;;13.85;85.34
12203;BME280;6164;42.178;24.622;2022-11-15T11:26:56;100006.88;;;13.73;83.97
12203;BME280;6164;42.178;24.622;2022-11-15T11:29:30;100004.16;;;13.81;85.19
12203;BME280;6164;42.178;24.622;2022-11-15T11:32:07;100000.72;;;13.95;87.05
12203;BME280;6164;42.178;24.622;2022-11-15T11:34:45;99993.88;;;14.01;86.08
12203;BME280;6164;42.178;24.622;2022-11-15T11:37:16;99993.31;;;14.05;85.61
12203;BME280;6164;42.178;24.622;2022-11-15T11:39:47;99984.94;;;14.16;84.49
12203;BME280;6164;42.178;24.622;2022-11-15T11:42:23;99983.94;;;14.32;85.03
12203;BME280;6164;42.178;24.622;2022-11-15T11:44:53;99982.31;;;14.45;84.98
12203;BME280;6164;42.178;24.622;2022-11-15T11:47:24;99976.06;;;14.53;83.30
12203;BME280;6164;42.178;24.622;2022-11-15T11:49:51;99976.41;;;14.65;82.29
12203;BME280;6164;42.178;24.622;2022-11-15T11:52:22;99978.91;;;14.81;81.34
12203;BME280;6164;42.178;24.622;2022-11-15T11:54:54;99973.56;;;14.95;82.09
12203;BME280;6164;42.178;24.622;2022-11-15T11:57:38;99964.44;;;15.04;80.84
12203;BME280;6164;42.178;24.622;2022-11-15T12:00:13;99960.84;;;15.12;79.15
12203;BME280;6164;42.178;24.622;2022-11-15T12:02:44;99962.75;;;15.18;78.83
12203;BME280;6164;42.178;24.622;2022-11-15T12:05:14;99953.41;;;15.22;79.02
12203;BME280;6164;42.178;24.622;2022-11-15T12:07:42;99952.44;;;15.29;78.74
12203;BME280;6164;42.178;24.622;2022-11-15T12:10:21;99953.25;;;15.30;76.59
12203;BME280;6164;42.178;24.622;2022-11-15T12:12:50;99948.00;;;15.15;75.19
12203;BME280;6164;42.178;24.622;2022-11-15T12:15:21;99937.06;;;15.25;75.65
12203;BME280;6164;42.178;24.622;2022-11-15T12:17:48;99931.09;;;15.23;75.12
12203;BME280;6164;42.178;24.622;2022-11-15T12:20:16;99925.56;;;15.24;73.83
12203;BME280;6164;42.178;24.622;2022-11-15T12:22:44;99922.28;;;15.22;74.00
12203;BME280;6164;42.178;24.622;2022-11-15T12:25:14;99917.53;;;15.18;73.63
12203;BME280;6164;42.178;24.622;2022-11-15T12:27:46;99914.25;;;15.16;73.02
12203;BME280;6164;42.178;24.622;2022-11-15T12:30:15;99916.97;;;15.22;74.41
12203;BME280;6164;42.178;24.622;2022-11-15T12:32:48;99906.22;;;15.30;73.00
12203;BME280;6164;42.178;24.622;2022-11-15T12:35:21;99904.75;;;15.28;73.08
12203;BME280;6164;42.178;24.622;2022-11-15T12:37:51;99909.94;;;15.36;71.08
12203;BME280;6164;42.178;24.622;2022-11-15T12:40:30;99908.63;;;15.46;72.26
12203;BME280;6164;42.178;24.622;2022-11-15T12:43:02;99906.09;;;15.59;71.56
12203;BME280;6164;42.178;24.622;2022-11-15T12:45:30;99902.88;;;15.70;70.04
12203;BME280;6164;42.178;24.622;2022-11-15T12:53:28;99887.94;;;15.69;68.24
12203;BME280;6164;42.178;24.622;2022-11-15T12:56:17;99877.34;;;15.76;69.16
12203;BME280;6164;42.178;24.622;2022-11-15T12:58:47;99886.38;;;15.81;66.51
12203;BME280;6164;42.178;24.622;2022-11-15T13:04:07;99880.88;;;15.83;67.45
12203;BME280;6164;42.178;24.622;2022-11-15T13:06:37;99874.44;;;15.71;66.52
12203;BME280;6164;42.178;24.622;2022-11-15T13:09:49;99872.50;;;15.86;68.49
12203;BME280;6164;42.178;24.622;2022-11-15T13:11:52;99864.72;;;15.85;68.38
12203;BME280;6164;42.178;24.622;2022-11-15T13:17:20;99864.75;;;15.91;68.88
12203;BME280;6164;42.178;24.622;2022-11-15T13:19:52;99861.09;;;15.99;68.91
12203;BME280;6164;42.178;24.622;2022-11-15T13:22:20;99862.66;;;15.87;67.51